sensor_id;sensor_type;location;lat;lon;timestamp;temperature;humidity
3778;DHT22;1904;50.076;8.660;2023-01-04T00:03:55;4.10;62.00
3778;DHT22;1904;50.076;8.660;2023-01-04T00:09:23;4.10;60.40
3778;DHT22;1904;50.076;8.660;2023-01-04T00:11:55;4.10;59.40
3778;DHT22;1904;50.076;8.660;2023-01-04T00:14:25;4.10;57.60
3778;DHT22;1904;50.076;8.660;2023-01-04T00:17:07;4.20;61.00
3778;DHT22;1904;50.076;8.660;2023-01-04T00:19:32;4.20;66.40
3778;DHT22;1904;50.076;8.660;2023-01-04T00:21:58;4.30;76.30
3778;DHT22;1904;50.076;8.660;2023-01-04T00:24:24;4.30;83.10
3778;DHT22;1904;50.076;8.660;2023-01-04T00:29:52;4.40;89.20
3778;DHT22;1904;50.076;8.660;2023-01-04T00:38:33;4.70;84.80
3778;DHT22;1904;50.076;8.660;2023-01-04T00:41:07;4.70;81.80
3778;DHT22;1904;50.076;8.660;2023-01-04T00:55:31;5.10;90.90
3778;DHT22;1904;50.076;8.660;2023-01-04T00:57:57;5.10;91.30
3778;DHT22;1904;50.076;8.660;2023-01-04T01:00:25;5.10;92.60
3778;DHT22;1904;50.076;8.660;2023-01-04T01:02:55;5.20;93.40
3778;DHT22;1904;50.076;8.660;2023-01-04T01:05:20;5.20;92.50
3778;DHT22;1904;50.076;8.660;2023-01-04T01:07:46;5.30;93.30
3778;DHT22;1904;50.076;8.660;2023-01-04T01:10:12;5.20;91.30
3778;DHT22;1904;50.076;8.660;2023-01-04T01:12:43;5.30;89.60
3778;DHT22;1904;50.076;8.660;2023-01-04T01:15:09;5.30;86.60
3778;DHT22;1904;50.076;8.660;2023-01-04T01:17:35;5.30;84.90
3778;DHT22;1904;50.076;8.660;2023-01-04T01:20:01;5.20;83.00
3778;DHT22;1904;50.076;8.660;2023-01-04T01:22:28;5.30;81.40
3778;DHT22;1904;50.076;8.660;2023-01-04T01:24:55;5.20;82.30
3778;DHT22;1904;50.076;8.660;2023-01-04T01:27:25;5.20;83.70
3778;DHT22;1904;50.076;8.660;2023-01-04T01:30:01;5.20;82.00
3778;DHT22;1904;50.076;8.660;2023-01-04T01:32:26;5.20;82.70
3778;DHT22;1904;50.076;8.660;2023-01-04T01:34:52;5.20;87.90
3778;DHT22;1904;50.076;8.660;2023-01-04T01:37:18;5.20;91.10
3778;DHT22;1904;50.076;8.660;2023-01-04T01:39:55;5.40;95.00
3778;DHT22;1904;50.076;8.660;2023-01-04T01:42:20;5.50;98.70
3778;DHT22;1904;50.076;8.660;2023-01-04T01:44:52;5.60;99.60
3778;DHT22;1904;50.076;8.660;2023-01-04T01:47:51;5.70;99.90
3778;DHT22;1904;50.076;8.660;2023-01-04T01:50:21;5.70;99.90
3778;DHT22;1904;50.076;8.660;2023-01-04T01:52:48;5.90;99.90
3778;DHT22;1904;50.076;8.660;2023-01-04T01:55:14;5.90;99.90
3778;DHT22;1904;50.076;8.660;2023-01-04T02:00:44;6.00;99.90
3778;DHT22;1904;50.076;8.660;2023-01-04T02:18:20;6.20;92.90
3778;DHT22;1904;50.076;8.660;2023-01-04T02:43:17;6.30;84.90
3778;DHT22;1904;50.076;8.660;2023-01-04T02:46:07;6.40;81.50
3778;DHT22;1904;50.076;8.660;2023-01-04T02:48:37;6.40;81.10
3778;DHT22;1904;50.076;8.660;2023-01-04T02:51:40;6.30;79.10
3778;DHT22;1904;50.076;8.660;2023-01-04T02:54:11;6.30;80.60
3778;DHT22;1904;50.076;8.660;2023-01-04T03:14:35;6.40;68.40
3778;DHT22;1904;50.076;8.660;2023-01-04T03:17:08;6.40;67.80
3778;DHT22;1904;50.076;8.660;2023-01-04T03:19:36;6.40;69.00
3778;DHT22;1904;50.076;8.660;2023-01-04T03:22:33;6.40;66.40
3778;DHT22;1904;50.076;8.660;2023-01-04T03:25:21;6.40;67.10
3778;DHT22;1904;50.076;8.660;2023-01-04T03:28:20;6.50;62.60
3778;DHT22;1904;50.076;8.660;2023-01-04T03:34:07;6.50;55.60
3778;DHT22;1904;50.076;8.660;2023-01-04T03:36:56;6.50;56.50
3778;DHT22;1904;50.076;8.660;2023-01-04T03:39:33;6.50;56.30
3778;DHT22;1904;50.076;8.660;2023-01-04T03:45:20;6.60;40.10
3778;DHT22;1904;50.076;8.660;2023-01-04T03:48:08;6.60;40.00
3778;DHT22;1904;50.076;8.660;2023-01-04T03:51:00;6.60;40.00
3778;DHT22;1904;50.076;8.660;2023-01-04T03:53:32;6.60;40.10
3778;DHT22;1904;50.076;8.660;2023-01-04T03:55:58;6.60;40.00
3778;DHT22;1904;50.076;8.660;2023-01-04T03:58:24;6.60;40.00
3778;DHT22;1904;50.076;8.660;2023-01-04T04:01:07;6.60;40.00
3778;DHT22;1904;50.076;8.660;2023-01-04T04:03:37;6.70;40.00
3778;DHT22;1904;50.076;8.660;2023-01-04T04:06:21;6.70;40.00
3778;DHT22;1904;50.076;8.660;2023-01-04T04:09:05;6.70;40.00
3778;DHT22;1904;50.076;8.660;2023-01-04T04:11:31;6.70;40.00
3778;DHT22;1904;50.076;8.660;2023-01-04T04:14:13;6.80;40.30
3778;DHT22;1904;50.076;8.660;2023-01-04T04:16:49;6.80;40.20
3778;DHT22;1904;50.076;8.660;2023-01-04T04:19:15;6.80;40.10
3778;DHT22;1904;50.076;8.660;2023-01-04T04:21:43;6.60;40.00
3778;DHT22;1904;50.076;8.660;2023-01-04T04:24:10;6.60;40.00
3778;DHT22;1904;50.076;8.660;2023-01-04T04:26:40;6.70;40.10
3778;DHT22;1904;50.076;8.660;2023-01-04T04:29:05;6.70;40.00
3778;DHT22;1904;50.076;8.660;2023-01-04T04:31:31;6.80;40.30
3778;DHT22;1904;50.076;8.660;2023-01-04T04:33:57;6.80;40.30
3778;DHT22;1904;50.076;8.660;2023-01-04T04:36:22;6.70;40.20
3778;DHT22;1904;50.076;8.660;2023-01-04T04:38:48;6.80;40.30
3778;DHT22;1904;50.076;8.660;2023-01-04T04:41:19;6.80;40.10
3778;DHT22;1904;50.076;8.660;2023-01-04T04:44:13;6.70;40.00
3778;DHT22;1904;50.076;8.660;2023-01-04T04:49:49;6.60;40.00
3778;DHT22;1904;50.076;8.660;2023-01-04T04:52:19;6.70;40.00
3778;DHT22;1904;50.076;8.660;2023-01-04T04:54:55;6.70;40.20
3778;DHT22;1904;50.076;8.660;2023-01-04T04:57:25;6.70;40.10
3778;DHT22;1904;50.076;8.660;2023-01-04T05:00:07;6.70;40.00
3778;DHT22;1904;50.076;8.660;2023-01-04T05:02:37;6.60;40.10
3778;DHT22;1904;50.076;8.660;2023-01-04T05:05:07;6.60;40.00
3778;DHT22;1904;50.076;8.660;2023-01-04T05:07:49;6.60;40.00
3778;DHT22;1904;50.076;8.660;2023-01-04T05:10:31;6.60;40.00
3778;DHT22;1904;50.076;8.660;2023-01-04T05:13:08;6.60;40.00
3778;DHT22;1904;50.076;8.660;2023-01-04T05:15:38;6.60;40.10
3778;DHT22;1904;50.076;8.660;2023-01-04T05:18:20;6.60;40.00
3778;DHT22;1904;50.076;8.660;2023-01-04T05:20:45;6.60;40.00
3778;DHT22;1904;50.076;8.660;2023-01-04T05:26:19;6.50;39.90
3778;DHT22;1904;50.076;8.660;2023-01-04T05:28:45;6.50;39.80
3778;DHT22;1904;50.076;8.660;2023-01-04T05:31:19;6.50;39.90
3778;DHT22;1904;50.076;8.660;2023-01-04T05:33:49;6.60;40.00
3778;DHT22;1904;50.076;8.660;2023-01-04T05:36:14;6.50;39.90
3778;DHT22;1904;50.076;8.660;2023-01-04T05:38:49;6.50;39.90
3778;DHT22;1904;50.076;8.660;2023-01-04T05:41:31;6.50;40.10
3778;DHT22;1904;50.076;8.660;2023-01-04T05:44:19;6.60;40.00
3778;DHT22;1904;50.076;8.660;2023-01-04T05:46:49;6.50;39.90
3778;DHT22;1904;50.076;8.660;2023-01-04T05:55:03;6.50;39.80
3778;DHT22;1904;50.076;8.660;2023-01-04T05:57:31;6.40;39.80
3778;DHT22;1904;50.076;8.660;2023-01-04T05:59:57;6.40;39.80
3778;DHT22;1904;50.076;8.660;2023-01-04T06:02:24;6.50;39.90
3778;DHT22;1904;50.076;8.660;2023-01-04T06:04:50;6.50;40.00
3778;DHT22;1904;50.076;8.660;2023-01-04T06:07:19;6.50;39.90
3778;DHT22;1904;50.076;8.660;2023-01-04T06:09:45;6.60;44.00
3778;DHT22;1904;50.076;8.660;2023-01-04T06:18:01;6.50;39.90
3778;DHT22;1904;50.076;8.660;2023-01-04T06:23:19;6.40;39.80
3778;DHT22;1904;50.076;8.660;2023-01-04T06:25:49;6.40;39.80
3778;DHT22;1904;50.076;8.660;2023-01-04T06:28:15;6.40;39.90
3778;DHT22;1904;50.076;8.660;2023-01-04T06:30:55;6.40;39.80
3778;DHT22;1904;50.076;8.660;2023-01-04T06:33:20;6.40;39.80
3778;DHT22;1904;50.076;8.660;2023-01-04T06:35:53;6.40;39.90
3778;DHT22;1904;50.076;8.660;2023-01-04T06:38:19;6.50;39.90
3778;DHT22;1904;50.076;8.660;2023-01-04T06:40:49;6.40;39.80
3778;DHT22;1904;50.076;8.660;2023-01-04T06:43:25;6.30;39.90
3778;DHT22;1904;50.076;8.660;2023-01-04T06:45:51;6.30;39.70
3778;DHT22;1904;50.076;8.660;2023-01-04T06:48:17;6.30;39.70
3778;DHT22;1904;50.076;8.660;2023-01-04T06:50:42;6.30;39.70
3778;DHT22;1904;50.076;8.660;2023-01-04T06:53:08;6.30;39.70
3778;DHT22;1904;50.076;8.660;2023-01-04T06:55:33;6.40;40.20
3778;DHT22;1904;50.076;8.660;2023-01-04T06:58:01;6.30;39.90
3778;DHT22;1904;50.076;8.660;2023-01-04T07:00:27;6.40;39.80
3778;DHT22;1904;50.076;8.660;2023-01-04T07:02:55;6.30;39.70
3778;DHT22;1904;50.076;8.660;2023-01-04T07:05:21;6.40;39.80
3778;DHT22;1904;50.076;8.660;2023-01-04T07:07:49;6.40;40.00
3778;DHT22;1904;50.076;8.660;2023-01-04T07:10:15;6.30;46.50
3778;DHT22;1904;50.076;8.660;2023-01-04T07:12:40;6.30;52.40
3778;DHT22;1904;50.076;8.660;2023-01-04T07:17:55;6.40;53.70
3778;DHT22;1904;50.076;8.660;2023-01-04T07:23:21;6.50;39.90
3778;DHT22;1904;50.076;8.660;2023-01-04T07:25:46;6.50;39.90
3778;DHT22;1904;50.076;8.660;2023-01-04T07:31:15;6.60;40.10
3778;DHT22;1904;50.076;8.660;2023-01-04T07:33:43;6.60;39.90
3778;DHT22;1904;50.076;8.660;2023-01-04T07:36:09;6.60;40.00
3778;DHT22;1904;50.076;8.660;2023-01-04T07:38:43;6.60;40.10
3778;DHT22;1904;50.076;8.660;2023-01-04T07:41:09;6.60;40.00
3778;DHT22;1904;50.076;8.660;2023-01-04T07:43:34;6.60;40.00
3778;DHT22;1904;50.076;8.660;2023-01-04T07:49:03;6.70;40.30
3778;DHT22;1904;50.076;8.660;2023-01-04T07:51:29;6.70;40.20
3778;DHT22;1904;50.076;8.660;2023-01-04T07:54:01;6.70;40.00
3778;DHT22;1904;50.076;8.660;2023-01-04T07:56:27;6.80;40.20
3778;DHT22;1904;50.076;8.660;2023-01-04T08:01:39;6.80;40.10
3778;DHT22;1904;50.076;8.660;2023-01-04T08:19:14;7.00;27.00
3778;DHT22;1904;50.076;8.660;2023-01-04T08:24:43;7.00;30.30
3778;DHT22;1904;50.076;8.660;2023-01-04T08:30:09;7.10;27.10
3778;DHT22;1904;50.076;8.660;2023-01-04T08:32:34;7.10;27.80
3778;DHT22;1904;50.076;8.660;2023-01-04T08:35:01;7.10;28.30
3778;DHT22;1904;50.076;8.660;2023-01-04T08:37:27;7.10;29.90
3778;DHT22;1904;50.076;8.660;2023-01-04T08:40:07;7.20;25.80
3778;DHT22;1904;50.076;8.660;2023-01-04T08:42:33;7.20;26.70
3778;DHT22;1904;50.076;8.660;2023-01-04T08:44:58;7.20;24.50
3778;DHT22;1904;50.076;8.660;2023-01-04T08:47:26;7.30;24.20
3778;DHT22;1904;50.076;8.660;2023-01-04T08:50:01;7.30;21.00
3778;DHT22;1904;50.076;8.660;2023-01-04T08:52:27;7.30;22.20
3778;DHT22;1904;50.076;8.660;2023-01-04T08:54:55;7.20;23.90
3778;DHT22;1904;50.076;8.660;2023-01-04T08:57:25;7.30;23.70
3778;DHT22;1904;50.076;8.660;2023-01-04T09:08:38;7.50;22.50
3778;DHT22;1904;50.076;8.660;2023-01-04T09:11:20;7.50;21.30
3778;DHT22;1904;50.076;8.660;2023-01-04T09:16:55;7.60;19.50
3778;DHT22;1904;50.076;8.660;2023-01-04T09:19:37;7.50;19.90
3778;DHT22;1904;50.076;8.660;2023-01-04T09:25:03;7.50;23.40
3778;DHT22;1904;50.076;8.660;2023-01-04T09:27:37;7.60;24.00
3778;DHT22;1904;50.076;8.660;2023-01-04T09:36:06;7.80;17.70
3778;DHT22;1904;50.076;8.660;2023-01-04T09:38:43;7.80;19.30
3778;DHT22;1904;50.076;8.660;2023-01-04T09:44:15;7.80;20.00
3778;DHT22;1904;50.076;8.660;2023-01-04T09:51:59;8.00;16.60
3778;DHT22;1904;50.076;8.660;2023-01-04T09:57:26;8.10;10.80
3778;DHT22;1904;50.076;8.660;2023-01-04T10:00:05;8.10;11.70
3778;DHT22;1904;50.076;8.660;2023-01-04T10:02:39;8.20;10.00
3778;DHT22;1904;50.076;8.660;2023-01-04T10:05:09;8.20;8.90
3778;DHT22;1904;50.076;8.660;2023-01-04T10:16:32;8.30;11.20
3778;DHT22;1904;50.076;8.660;2023-01-04T10:19:13;8.30;9.90
3778;DHT22;1904;50.076;8.660;2023-01-04T10:33:22;8.40;8.20
3778;DHT22;1904;50.076;8.660;2023-01-04T10:35:55;8.50;6.80
3778;DHT22;1904;50.076;8.660;2023-01-04T10:38:32;8.40;5.10
3778;DHT22;1904;50.076;8.660;2023-01-04T10:41:17;8.50;5.50
3778;DHT22;1904;50.076;8.660;2023-01-04T10:46:28;8.50;3.90
3778;DHT22;1904;50.076;8.660;2023-01-04T10:52:06;8.60;4.20
3778;DHT22;1904;50.076;8.660;2023-01-04T10:57:09;8.70;1.60
3778;DHT22;1904;50.076;8.660;2023-01-04T11:07:27;8.80;2.50
3778;DHT22;1904;50.076;8.660;2023-01-04T11:12:51;8.90;1.60
3778;DHT22;1904;50.076;8.660;2023-01-04T11:15:19;9.00;1.00
3778;DHT22;1904;50.076;8.660;2023-01-04T11:17:45;9.00;1.00
3778;DHT22;1904;50.076;8.660;2023-01-04T11:20:13;8.90;1.00
3778;DHT22;1904;50.076;8.660;2023-01-04T11:22:39;9.00;1.00
3778;DHT22;1904;50.076;8.660;2023-01-04T11:25:17;8.90;1.00
3778;DHT22;1904;50.076;8.660;2023-01-04T11:27:45;8.90;1.00
3778;DHT22;1904;50.076;8.660;2023-01-04T11:30:19;9.00;1.00
3778;DHT22;1904;50.076;8.660;2023-01-04T11:35:35;9.00;1.00
3778;DHT22;1904;50.076;8.660;2023-01-04T11:47:25;9.20;1.00
3778;DHT22;1904;50.076;8.660;2023-01-04T11:49:55;9.30;1.00
3778;DHT22;1904;50.076;8.660;2023-01-04T11:55:23;9.30;1.00
3778;DHT22;1904;50.076;8.660;2023-01-04T11:58:05;9.30;1.00
3778;DHT22;1904;50.076;8.660;2023-01-04T12:00:31;9.40;1.00
3778;DHT22;1904;50.076;8.660;2023-01-04T12:05:49;9.30;1.00
3778;DHT22;1904;50.076;8.660;2023-01-04T12:08:26;9.40;1.00
3778;DHT22;1904;50.076;8.660;2023-01-04T12:11:03;9.40;1.00
3778;DHT22;1904;50.076;8.660;2023-01-04T12:13:37;9.40;1.00
3778;DHT22;1904;50.076;8.660;2023-01-04T12:24:51;9.50;1.00
3778;DHT22;1904;50.076;8.660;2023-01-04T12:27:31;9.60;1.00
3778;DHT22;1904;50.076;8.660;2023-01-04T12:29:58;9.60;1.00
3778;DHT22;1904;50.076;8.660;2023-01-04T12:35:48;9.60;1.00
3778;DHT22;1904;50.076;8.660;2023-01-04T12:54:50;9.60;1.10
3778;DHT22;1904;50.076;8.660;2023-01-04T12:57:21;9.60;3.70
3778;DHT22;1904;50.076;8.660;2023-01-04T13:07:43;9.50;7.50
3778;DHT22;1904;50.076;8.660;2023-01-04T13:15:39;9.80;5.70
3778;DHT22;1904;50.076;8.660;2023-01-04T13:24:03;9.90;4.10
3778;DHT22;1904;50.076;8.660;2023-01-04T13:26:37;9.90;6.30
3778;DHT22;1904;50.076;8.660;2023-01-04T13:29:10;9.90;1.00
3778;DHT22;1904;50.076;8.660;2023-01-04T13:39:50;10.10;1.00
3778;DHT22;1904;50.076;8.660;2023-01-04T13:45:31;10.20;1.00
3778;DHT22;1904;50.076;8.660;2023-01-04T13:48:02;10.20;1.00
3778;DHT22;1904;50.076;8.660;2023-01-04T13:50:33;10.10;1.00
3778;DHT22;1904;50.076;8.660;2023-01-04T13:59:04;10.20;1.00
3778;DHT22;1904;50.076;8.660;2023-01-04T14:01:32;10.20;1.00
3778;DHT22;1904;50.076;8.660;2023-01-04T14:04:00;10.30;1.00
3778;DHT22;1904;50.076;8.660;2023-01-04T14:09:34;10.30;1.00
3778;DHT22;1904;50.076;8.660;2023-01-04T14:12:11;10.30;1.00
3778;DHT22;1904;50.076;8.660;2023-01-04T14:17:55;10.40;1.00
3778;DHT22;1904;50.076;8.660;2023-01-04T14:23:24;10.30;1.00
3778;DHT22;1904;50.076;8.660;2023-01-04T14:28:43;10.30;1.00
3778;DHT22;1904;50.076;8.660;2023-01-04T14:36:09;10.30;1.00
3778;DHT22;1904;50.076;8.660;2023-01-04T14:49:20;10.40;1.00
3778;DHT22;1904;50.076;8.660;2023-01-04T14:57:36;10.40;1.00
3778;DHT22;1904;50.076;8.660;2023-01-04T15:03:20;10.40;1.00
3778;DHT22;1904;50.076;8.660;2023-01-04T15:05:50;10.40;1.00
3778;DHT22;1904;50.076;8.660;2023-01-04T15:08:32;10.40;1.00
3778;DHT22;1904;50.076;8.660;2023-01-04T15:11:09;10.40;1.00
3778;DHT22;1904;50.076;8.660;2023-01-04T15:13:44;10.40;1.00
3778;DHT22;1904;50.076;8.660;2023-01-04T15:19:20;10.40;1.00
3778;DHT22;1904;50.076;8.660;2023-01-04T15:21:56;10.50;1.00
3778;DHT22;1904;50.076;8.660;2023-01-04T15:24:32;10.50;1.00
3778;DHT22;1904;50.076;8.660;2023-01-04T15:30:00;10.40;1.00
3778;DHT22;1904;50.076;8.660;2023-01-04T15:35:26;10.40;1.00
3778;DHT22;1904;50.076;8.660;2023-01-04T15:38:08;10.40;1.00
3778;DHT22;1904;50.076;8.660;2023-01-04T15:49:15;10.50;1.00
3778;DHT22;1904;50.076;8.660;2023-01-04T15:51:50;10.50;1.00
3778;DHT22;1904;50.076;8.660;2023-01-04T15:54:26;10.50;1.00
3778;DHT22;1904;50.076;8.660;2023-01-04T15:56:52;10.50;1.00
3778;DHT22;1904;50.076;8.660;2023-01-04T15:59:26;10.50;1.00
3778;DHT22;1904;50.076;8.660;2023-01-04T16:07:44;10.60;1.00
3778;DHT22;1904;50.076;8.660;2023-01-04T16:10:26;10.60;1.00
3778;DHT22;1904;50.076;8.660;2023-01-04T16:13:02;10.60;1.00
3778;DHT22;1904;50.076;8.660;2023-01-04T16:15:44;10.60;1.00
3778;DHT22;1904;50.076;8.660;2023-01-04T16:18:14;10.60;1.00
3778;DHT22;1904;50.076;8.660;2023-01-04T16:23:50;10.50;1.00
3778;DHT22;1904;50.076;8.660;2023-01-04T16:26:32;10.50;1.00
3778;DHT22;1904;50.076;8.660;2023-01-04T16:34:44;10.40;1.00
3778;DHT22;1904;50.076;8.660;2023-01-04T16:37:09;10.50;1.00
3778;DHT22;1904;50.076;8.660;2023-01-04T16:39:38;10.50;1.00
3778;DHT22;1904;50.076;8.660;2023-01-04T16:42:03;10.50;1.00
3778;DHT22;1904;50.076;8.660;2023-01-04T16:47:36;10.50;1.00
3778;DHT22;1904;50.076;8.660;2023-01-04T16:50:02;10.60;1.00
3778;DHT22;1904;50.076;8.660;2023-01-04T16:52:44;10.60;1.00
3778;DHT22;1904;50.076;8.660;2023-01-04T16:58:08;10.60;1.00
3778;DHT22;1904;50.076;8.660;2023-01-04T17:03:36;10.60;1.00
3778;DHT22;1904;50.076;8.660;2023-01-04T17:06:09;10.60;1.00
3778;DHT22;1904;50.076;8.660;2023-01-04T17:08:35;10.60;1.00
3778;DHT22;1904;50.076;8.660;2023-01-04T17:11:04;10.60;1.00
3778;DHT22;1904;50.076;8.660;2023-01-04T17:13:32;10.70;1.00
3778;DHT22;1904;50.076;8.660;2023-01-04T17:16:14;10.60;1.00
3778;DHT22;1904;50.076;8.660;2023-01-04T17:27:38;10.60;1.00
3778;DHT22;1904;50.076;8.660;2023-01-04T17:30:20;10.60;1.00
3778;DHT22;1904;50.076;8.660;2023-01-04T17:35:48;10.70;1.00
3778;DHT22;1904;50.076;8.660;2023-01-04T17:44:18;10.70;1.00
3778;DHT22;1904;50.076;8.660;2023-01-04T17:46:44;10.70;1.00
3778;DHT22;1904;50.076;8.660;2023-01-04T17:49:14;10.70;1.00
3778;DHT22;1904;50.076;8.660;2023-01-04T17:51:56;10.80;1.00
3778;DHT22;1904;50.076;8.660;2023-01-04T17:54:32;10.80;1.00
3778;DHT22;1904;50.076;8.660;2023-01-04T17:57:02;10.70;1.00
3778;DHT22;1904;50.076;8.660;2023-01-04T18:02:30;10.60;1.00
3778;DHT22;1904;50.076;8.660;2023-01-04T18:05:02;10.60;1.00
3778;DHT22;1904;50.076;8.660;2023-01-04T18:07:32;10.70;1.00
3778;DHT22;1904;50.076;8.660;2023-01-04T18:10:08;10.70;1.00
3778;DHT22;1904;50.076;8.660;2023-01-04T18:15:32;10.70;1.00
3778;DHT22;1904;50.076;8.660;2023-01-04T18:18:02;10.70;1.00
3778;DHT22;1904;50.076;8.660;2023-01-04T18:20:32;10.70;1.00
3778;DHT22;1904;50.076;8.660;2023-01-04T18:25:47;10.60;1.00
3778;DHT22;1904;50.076;8.660;2023-01-04T18:31:15;10.50;9.80
3778;DHT22;1904;50.076;8.660;2023-01-04T18:33:49;10.50;12.80
3778;DHT22;1904;50.076;8.660;2023-01-04T18:36:15;10.40;16.70
3778;DHT22;1904;50.076;8.660;2023-01-04T18:38:47;10.40;20.80
3778;DHT22;1904;50.076;8.660;2023-01-04T18:41:12;10.40;23.80
3778;DHT22;1904;50.076;8.660;2023-01-04T18:46:38;10.40;42.20
3778;DHT22;1904;50.076;8.660;2023-01-04T18:49:14;10.40;42.20
3778;DHT22;1904;50.076;8.660;2023-01-04T18:57:44;10.20;42.20
3778;DHT22;1904;50.076;8.660;2023-01-04T19:00:14;10.20;52.40
3778;DHT22;1904;50.076;8.660;2023-01-04T19:05:41;10.20;60.70
3778;DHT22;1904;50.076;8.660;2023-01-04T19:08:08;10.20;66.10
3778;DHT22;1904;50.076;8.660;2023-01-04T19:10:33;10.20;68.20
3778;DHT22;1904;50.076;8.660;2023-01-04T19:13:08;10.20;71.00
3778;DHT22;1904;50.076;8.660;2023-01-04T19:15:33;10.20;70.40
3778;DHT22;1904;50.076;8.660;2023-01-04T19:17:59;10.20;65.30
3778;DHT22;1904;50.076;8.660;2023-01-04T19:23:20;10.20;61.60
3778;DHT22;1904;50.076;8.660;2023-01-04T19:25:46;10.20;57.40
3778;DHT22;1904;50.076;8.660;2023-01-04T19:37:18;10.20;63.70
3778;DHT22;1904;50.076;8.660;2023-01-04T19:39:50;10.30;64.90
3778;DHT22;1904;50.076;8.660;2023-01-04T19:42:20;10.30;56.00
3778;DHT22;1904;50.076;8.660;2023-01-04T19:47:44;10.30;59.10
3778;DHT22;1904;50.076;8.660;2023-01-04T19:50:26;10.30;58.90
3778;DHT22;1904;50.076;8.660;2023-01-04T19:55:50;10.40;57.90
3778;DHT22;1904;50.076;8.660;2023-01-04T20:01:22;10.40;58.60
3778;DHT22;1904;50.076;8.660;2023-01-04T20:03:50;10.30;72.20
3778;DHT22;1904;50.076;8.660;2023-01-04T20:06:16;10.30;75.30
3778;DHT22;1904;50.076;8.660;2023-01-04T20:14:50;10.20;96.60
3778;DHT22;1904;50.076;8.660;2023-01-04T20:23:32;10.20;99.90
3778;DHT22;1904;50.076;8.660;2023-01-04T20:26:03;10.20;99.90
3778;DHT22;1904;50.076;8.660;2023-01-04T20:28:29;10.20;99.90
3778;DHT22;1904;50.076;8.660;2023-01-04T20:33:45;10.20;99.90
3778;DHT22;1904;50.076;8.660;2023-01-04T20:36:16;10.20;99.90
3778;DHT22;1904;50.076;8.660;2023-01-04T20:38:51;10.20;99.90
3778;DHT22;1904;50.076;8.660;2023-01-04T20:41:21;10.30;99.90
3778;DHT22;1904;50.076;8.660;2023-01-04T20:43:56;10.40;99.40
3778;DHT22;1904;50.076;8.660;2023-01-04T20:46:32;10.40;97.60
3778;DHT22;1904;50.076;8.660;2023-01-04T20:49:02;10.30;99.20
3778;DHT22;1904;50.076;8.660;2023-01-04T20:51:32;10.30;99.20
3778;DHT22;1904;50.076;8.660;2023-01-04T20:54:02;10.40;99.90
3778;DHT22;1904;50.076;8.660;2023-01-04T20:56:28;10.30;99.90
3778;DHT22;1904;50.076;8.660;2023-01-04T20:58:54;10.40;99.50
3778;DHT22;1904;50.076;8.660;2023-01-04T21:01:26;10.30;99.90
3778;DHT22;1904;50.076;8.660;2023-01-04T21:04:02;10.40;99.80
3778;DHT22;1904;50.076;8.660;2023-01-04T21:06:27;10.40;99.70
3778;DHT22;1904;50.076;8.660;2023-01-04T21:08:54;10.50;98.20
3778;DHT22;1904;50.076;8.660;2023-01-04T21:14:26;10.50;93.40
3778;DHT22;1904;50.076;8.660;2023-01-04T21:16:56;10.50;91.50
3778;DHT22;1904;50.076;8.660;2023-01-04T21:19:21;10.50;91.50
3778;DHT22;1904;50.076;8.660;2023-01-04T21:24:33;10.50;91.30
3778;DHT22;1904;50.076;8.660;2023-01-04T21:26:59;10.50;91.80
3778;DHT22;1904;50.076;8.660;2023-01-04T21:29:38;10.50;89.70
3778;DHT22;1904;50.076;8.660;2023-01-04T21:32:03;10.60;83.60
3778;DHT22;1904;50.076;8.660;2023-01-04T21:34:38;10.60;80.40
3778;DHT22;1904;50.076;8.660;2023-01-04T21:37:03;10.60;76.10
3778;DHT22;1904;50.076;8.660;2023-01-04T21:39:29;10.70;69.70
3778;DHT22;1904;50.076;8.660;2023-01-04T21:42:08;10.70;62.80
3778;DHT22;1904;50.076;8.660;2023-01-04T21:50:39;10.70;66.20
3778;DHT22;1904;50.076;8.660;2023-01-04T21:53:20;10.60;69.90
3778;DHT22;1904;50.076;8.660;2023-01-04T21:56:00;10.60;72.40
3778;DHT22;1904;50.076;8.660;2023-01-04T21:58:26;10.60;73.80
3778;DHT22;1904;50.076;8.660;2023-01-04T22:00:56;10.70;73.80
3778;DHT22;1904;50.076;8.660;2023-01-04T22:03:26;10.60;78.20
3778;DHT22;1904;50.076;8.660;2023-01-04T22:05:51;10.70;78.70
3778;DHT22;1904;50.076;8.660;2023-01-04T22:11:20;10.70;76.20
3778;DHT22;1904;50.076;8.660;2023-01-04T22:13:46;10.80;71.80
3778;DHT22;1904;50.076;8.660;2023-01-04T22:22:14;10.70;77.40
3778;DHT22;1904;50.076;8.660;2023-01-04T22:24:40;10.80;79.20
3778;DHT22;1904;50.076;8.660;2023-01-04T22:27:05;10.80;75.80
3778;DHT22;1904;50.076;8.660;2023-01-04T22:29:31;10.80;78.00
3778;DHT22;1904;50.076;8.660;2023-01-04T22:32:08;10.80;78.10
3778;DHT22;1904;50.076;8.660;2023-01-04T22:34:38;10.80;81.50
3778;DHT22;1904;50.076;8.660;2023-01-04T22:37:03;10.80;87.40
3778;DHT22;1904;50.076;8.660;2023-01-04T22:42:44;10.80;93.40
3778;DHT22;1904;50.076;8.660;2023-01-04T22:54:18;11.10;93.10
3778;DHT22;1904;50.076;8.660;2023-01-04T22:56:44;11.00;91.10
3778;DHT22;1904;50.076;8.660;2023-01-04T23:08:26;11.10;90.80
3778;DHT22;1904;50.076;8.660;2023-01-04T23:10:52;11.10;90.10
3778;DHT22;1904;50.076;8.660;2023-01-04T23:13:17;11.10;91.70
3778;DHT22;1904;50.076;8.660;2023-01-04T23:15:44;11.10;92.20
3778;DHT22;1904;50.076;8.660;2023-01-04T23:18:14;11.10;92.10
3778;DHT22;1904;50.076;8.660;2023-01-04T23:20:39;11.10;93.10
3778;DHT22;1904;50.076;8.660;2023-01-04T23:23:05;11.10;94.60
3778;DHT22;1904;50.076;8.660;2023-01-04T23:25:31;11.10;95.40
3778;DHT22;1904;50.076;8.660;2023-01-04T23:28:02;11.10;98.50
3778;DHT22;1904;50.076;8.660;2023-01-04T23:30:27;11.10;97.60
3778;DHT22;1904;50.076;8.660;2023-01-04T23:32:56;11.10;98.80
3778;DHT22;1904;50.076;8.660;2023-01-04T23:35:32;11.10;99.60
3778;DHT22;1904;50.076;8.660;2023-01-04T23:37:57;11.10;99.90
3778;DHT22;1904;50.076;8.660;2023-01-04T23:40:26;11.10;99.90
3778;DHT22;1904;50.076;8.660;2023-01-04T23:52:09;11.30;96.40
3778;DHT22;1904;50.076;8.660;2023-01-04T23:54:38;11.30;95.00
3778;DHT22;1904;50.076;8.660;2023-01-04T23:57:14;11.20;94.90
3778;DHT22;1904;50.076;8.660;2023-01-04T23:59:44;11.10;96.40
